createdAt,value
2023-04-13T00:00:12.225Z,4.50
2023-04-13T00:02:41.215Z,4.50
2023-04-13T00:05:09.678Z,5.00
2023-04-13T00:07:40.178Z,5.30
2023-04-13T00:12:38.149Z,5.50
2023-04-13T00:15:05.686Z,5.90
2023-04-13T00:17:37.352Z,5.40
2023-04-13T00:20:10.628Z,5.40
2023-04-13T00:22:37.825Z,4.40
2023-04-13T00:25:10.043Z,4.50
2023-04-13T00:27:40.463Z,4.20
2023-04-13T00:30:09.420Z,4.30
2023-04-13T00:32:51.760Z,3.80
2023-04-13T00:35:24.239Z,4.30
2023-04-13T00:37:51.929Z,4.30
2023-04-13T00:40:19.615Z,4.30
2023-04-13T00:42:49.260Z,4.20
2023-04-13T00:45:20.256Z,4.20
2023-04-13T00:47:50.062Z,4.30
2023-04-13T00:50:20.259Z,4.30
2023-04-13T00:52:48.229Z,4.00
2023-04-13T00:55:20.247Z,4.10
2023-04-13T00:57:51.951Z,4.30
2023-04-13T01:00:20.534Z,4.40
2023-04-13T01:03:02.046Z,4.30
2023-04-13T01:05:37.014Z,4.20
2023-04-13T01:08:14.345Z,4.10
2023-04-13T01:10:55.076Z,4.20
2023-04-13T01:13:42.016Z,3.90
2023-04-13T01:16:19.384Z,4.60
2023-04-13T01:18:50.055Z,3.90
2023-04-13T01:21:21.041Z,3.90
2023-04-13T01:23:48.606Z,4.10
2023-04-13T01:26:16.684Z,4.00
2023-04-13T01:28:47.592Z,4.30
2023-04-13T01:31:16.662Z,4.20
2023-04-13T01:33:43.438Z,3.90
2023-04-13T01:36:10.846Z,3.80
2023-04-13T01:38:39.462Z,4.30
2023-04-13T01:41:08.998Z,3.90
2023-04-13T01:43:38.452Z,4.10
2023-04-13T01:46:13.223Z,3.90
2023-04-13T01:48:49.930Z,3.90
2023-04-13T01:51:44.733Z,4.00
2023-04-13T01:54:17.057Z,3.70
2023-04-13T01:56:46.097Z,4.20
2023-04-13T01:59:13.287Z,4.30
2023-04-13T02:01:40.522Z,4.20
2023-04-13T02:04:15.210Z,4.20
2023-04-13T02:06:46.356Z,4.20
2023-04-13T02:09:13.913Z,4.30
2023-04-13T02:11:41.452Z,4.80
2023-04-13T02:14:18.145Z,4.50
2023-04-13T02:16:45.337Z,4.80
2023-04-13T02:19:14.192Z,4.90
2023-04-13T02:21:41.588Z,4.90
2023-04-13T02:24:08.631Z,4.70
2023-04-13T02:26:37.088Z,4.60
2023-04-13T02:29:05.112Z,4.50
2023-04-13T02:31:51.937Z,4.20
2023-04-13T02:34:18.805Z,4.60
2023-04-13T02:36:45.841Z,4.70
2023-04-13T02:39:15.945Z,5.00
2023-04-13T02:41:43.920Z,4.80
2023-04-13T02:44:17.256Z,4.60
2023-04-13T02:46:49.574Z,5.00
2023-04-13T02:49:17.994Z,4.80
2023-04-13T02:51:55.580Z,4.60
2023-04-13T02:54:31.046Z,4.60
2023-04-13T02:56:58.717Z,4.50
2023-04-13T02:59:27.892Z,4.60
2023-04-13T03:01:58.047Z,4.30
2023-04-13T03:04:27.138Z,5.30
2023-04-13T03:06:54.380Z,5.70
2023-04-13T03:09:23.264Z,5.30
2023-04-13T03:11:58.170Z,5.00
2023-04-13T03:14:29.319Z,4.90
2023-04-13T03:17:01.199Z,5.10
2023-04-13T03:19:37.385Z,4.60
2023-04-13T03:22:04.680Z,4.80
2023-04-13T03:24:34.612Z,4.80
2023-04-13T03:27:04.988Z,4.80
2023-04-13T03:29:36.596Z,5.30
2023-04-13T03:32:04.865Z,5.00
2023-04-13T03:34:33.300Z,5.30
2023-04-13T03:37:02.257Z,5.50
2023-04-13T03:39:32.254Z,5.10
2023-04-13T03:41:59.079Z,5.40
2023-04-13T03:44:26.656Z,5.20
2023-04-13T03:46:53.778Z,4.40
2023-04-13T03:49:24.778Z,4.70
2023-04-13T03:51:56.833Z,4.50
2023-04-13T03:54:25.269Z,4.80
2023-04-13T03:56:53.137Z,5.20
2023-04-13T03:59:20.057Z,5.20
2023-04-13T04:01:47.485Z,4.70
2023-04-13T04:04:15.694Z,5.30
2023-04-13T04:06:45.381Z,5.20
2023-04-13T04:09:13.974Z,5.30
2023-04-13T04:11:44.597Z,5.40
2023-04-13T04:14:12.480Z,4.90
2023-04-13T04:16:47.512Z,5.00
2023-04-13T04:19:15.871Z,5.60
2023-04-13T04:21:44.231Z,5.30
2023-04-13T04:24:21.920Z,5.20
2023-04-13T04:26:54.392Z,5.80
2023-04-13T04:29:21.707Z,5.20
2023-04-13T04:31:52.738Z,5.60
2023-04-13T04:34:22.522Z,5.50
2023-04-13T04:36:50.536Z,5.00
2023-04-13T04:39:21.690Z,5.50
2023-04-13T04:42:02.354Z,5.80
2023-04-13T04:44:32.202Z,5.80
2023-04-13T04:47:03.552Z,6.30
2023-04-13T04:49:31.664Z,6.30
2023-04-13T04:51:58.805Z,6.40
2023-04-13T04:54:26.018Z,6.60
2023-04-13T04:56:52.974Z,7.00
2023-04-13T04:59:21.040Z,6.60
2023-04-13T05:01:56.814Z,6.90
2023-04-13T05:04:23.878Z,7.00
2023-04-13T05:06:52.492Z,7.20
2023-04-13T05:09:22.758Z,7.30
2023-04-13T05:11:53.967Z,7.70
2023-04-13T05:14:21.137Z,7.80
2023-04-13T05:16:51.457Z,8.10
2023-04-13T05:19:29.084Z,7.60
2023-04-13T05:22:02.259Z,7.40
2023-04-13T05:27:03.415Z,6.90
2023-04-13T05:29:32.918Z,6.60
2023-04-13T05:32:00.073Z,7.10
2023-04-13T05:34:28.204Z,6.70
2023-04-13T05:37:32.136Z,6.10
2023-04-13T05:39:59.708Z,6.10
2023-04-13T05:42:32.459Z,5.70
2023-04-13T05:45:00.159Z,5.60
2023-04-13T05:47:28.319Z,5.90
2023-04-13T05:49:58.168Z,6.00
2023-04-13T05:52:26.560Z,5.30
2023-04-13T05:54:54.154Z,6.10
2023-04-13T05:57:22.503Z,5.30
2023-04-13T05:59:51.459Z,4.80
2023-04-13T06:02:21.984Z,6.90
2023-04-13T06:04:52.942Z,7.10
2023-04-13T06:07:21.200Z,6.00
2023-04-13T06:09:49.016Z,5.80
2023-04-13T06:14:49.117Z,6.30
2023-04-13T06:17:16.160Z,6.00
2023-04-13T06:19:43.867Z,5.60
2023-04-13T06:22:10.908Z,5.20
2023-04-13T06:24:39.214Z,4.90
2023-04-13T06:27:07.357Z,5.50
2023-04-13T06:29:36.017Z,5.70
2023-04-13T06:32:07.225Z,4.80
2023-04-13T06:34:35.169Z,4.60
2023-04-13T06:37:02.668Z,5.40
2023-04-13T06:39:33.017Z,5.70
2023-04-13T06:42:00.858Z,5.80
2023-04-13T06:44:54.334Z,4.80
2023-04-13T06:47:21.446Z,5.20
2023-04-13T06:49:51.516Z,5.50
2023-04-13T06:52:18.422Z,5.30
2023-04-13T06:54:45.353Z,4.60
2023-04-13T06:57:33.427Z,5.10
2023-04-13T07:00:00.463Z,5.50
2023-04-13T07:02:31.124Z,5.10
2023-04-13T07:05:01.230Z,5.50
2023-04-13T07:07:30.184Z,4.70
2023-04-13T07:09:58.856Z,6.10
2023-04-13T07:12:34.473Z,4.90
2023-04-13T07:15:02.304Z,5.00
2023-04-13T07:17:32.315Z,4.70
2023-04-13T07:20:03.648Z,4.70
2023-04-13T07:22:33.087Z,4.50
2023-04-13T07:25:00.814Z,4.90
2023-04-13T07:27:28.279Z,6.30
2023-04-13T07:29:56.156Z,5.60
2023-04-13T07:32:30.921Z,6.10
2023-04-13T07:35:00.874Z,4.80
2023-04-13T07:37:31.560Z,4.70
2023-04-13T07:39:59.794Z,4.30
2023-04-13T07:42:28.391Z,5.00
2023-04-13T07:44:59.137Z,5.30
2023-04-13T07:47:26.972Z,5.00
2023-04-13T07:49:57.018Z,4.90
2023-04-13T07:52:24.216Z,4.60
2023-04-13T07:54:52.507Z,4.00
2023-04-13T07:57:20.955Z,4.40
2023-04-13T07:59:51.248Z,4.80
2023-04-13T08:02:19.990Z,4.60
2023-04-13T08:04:47.248Z,4.20
2023-04-13T08:07:18.215Z,4.10
2023-04-13T08:09:47.950Z,4.10
2023-04-13T08:12:16.118Z,3.90
2023-04-13T08:14:47.747Z,4.70
2023-04-13T08:17:18.065Z,3.90
2023-04-13T08:19:45.841Z,4.50
2023-04-13T08:22:15.479Z,4.10
2023-04-13T08:24:45.647Z,4.30
2023-04-13T08:27:12.683Z,4.50
2023-04-13T08:29:39.502Z,4.20
2023-04-13T08:32:06.875Z,4.90
2023-04-13T08:34:34.535Z,4.20
2023-04-13T08:37:01.906Z,4.80
2023-04-13T08:39:41.045Z,5.00
2023-04-13T08:42:09.283Z,5.70
2023-04-13T08:44:40.056Z,4.80
2023-04-13T08:47:16.600Z,4.50
2023-04-13T08:49:44.264Z,5.20
2023-04-13T08:54:48.736Z,4.80
2023-04-13T08:57:20.593Z,4.60
2023-04-13T08:59:51.789Z,6.80
2023-04-13T09:02:25.807Z,5.50
2023-04-13T09:04:59.241Z,4.60
2023-04-13T09:07:31.829Z,4.30
2023-04-13T09:10:03.581Z,4.60
2023-04-13T09:12:33.635Z,4.30
2023-04-13T09:15:02.644Z,4.10
2023-04-13T09:17:31.859Z,4.30
2023-04-13T09:22:52.648Z,4.70
2023-04-13T09:25:23.799Z,5.10
2023-04-13T09:27:51.675Z,4.80
2023-04-13T09:30:21.070Z,4.60
2023-04-13T09:33:11.080Z,4.40
2023-04-13T09:35:41.764Z,4.60
2023-04-13T09:38:11.228Z,3.90
2023-04-13T09:40:47.682Z,4.90
2023-04-13T09:43:15.021Z,4.60
2023-04-13T09:45:43.879Z,4.80
2023-04-13T09:48:21.274Z,4.40
2023-04-13T09:51:01.542Z,4.70
2023-04-13T09:53:39.954Z,4.80
2023-04-13T09:56:07.146Z,4.50
2023-04-13T09:58:40.525Z,4.60
2023-04-13T10:01:09.717Z,4.40
2023-04-13T10:03:37.461Z,4.70
2023-04-13T10:06:07.215Z,5.10
2023-04-13T10:08:39.060Z,5.00
2023-04-13T10:11:10.991Z,5.10
2023-04-13T10:13:51.089Z,4.80
2023-04-13T10:16:21.201Z,5.10
2023-04-13T10:19:07.682Z,4.90
2023-04-13T10:21:39.403Z,5.10
2023-04-13T10:24:11.721Z,4.80
2023-04-13T10:26:41.163Z,4.70
2023-04-13T10:29:09.587Z,5.40
2023-04-13T10:31:39.582Z,5.20
2023-04-13T10:34:10.136Z,5.20
2023-04-13T10:36:38.588Z,4.70
2023-04-13T10:39:05.622Z,5.00
2023-04-13T10:41:32.757Z,5.30
2023-04-13T10:44:01.811Z,5.00
2023-04-13T10:46:29.096Z,5.40
2023-04-13T10:48:59.833Z,4.80
2023-04-13T10:51:43.630Z,4.80
2023-04-13T10:54:12.486Z,4.50
2023-04-13T10:56:39.750Z,4.80
2023-04-13T10:59:07.541Z,4.10
2023-04-13T11:01:35.255Z,4.70
2023-04-13T11:04:06.073Z,4.20
2023-04-13T11:06:38.460Z,4.80
2023-04-13T11:09:06.200Z,4.60
2023-04-13T11:11:35.108Z,4.60
2023-04-13T11:14:04.443Z,4.60
2023-04-13T11:16:43.678Z,4.60
2023-04-13T11:19:11.310Z,4.20
2023-04-13T11:21:38.204Z,4.70
2023-04-13T11:24:05.300Z,4.60
2023-04-13T11:26:38.206Z,4.40
2023-04-13T11:29:16.963Z,4.90
2023-04-13T11:31:46.171Z,4.70
2023-04-13T11:34:13.442Z,5.10
2023-04-13T11:36:40.458Z,4.70
2023-04-13T11:39:10.142Z,4.60
2023-04-13T11:41:43.885Z,4.40
2023-04-13T11:44:11.848Z,4.30
2023-04-13T11:46:38.943Z,4.50
2023-04-13T11:49:05.956Z,4.50
2023-04-13T11:51:33.439Z,4.70
2023-04-13T11:54:00.575Z,5.10
2023-04-13T11:56:27.402Z,5.00
2023-04-13T11:58:54.356Z,5.10
2023-04-13T12:01:26.100Z,4.90
2023-04-13T12:04:12.851Z,4.90
2023-04-13T12:06:44.964Z,5.30
2023-04-13T12:09:17.310Z,5.60
2023-04-13T12:12:15.941Z,5.40
2023-04-13T12:14:54.845Z,5.00
2023-04-13T12:20:03.997Z,4.80
2023-04-13T12:22:50.817Z,5.20
2023-04-13T12:25:24.250Z,5.00
2023-04-13T12:30:20.668Z,5.40
2023-04-13T12:32:53.515Z,5.20
2023-04-13T12:35:21.004Z,5.70
2023-04-13T12:37:48.631Z,5.00
2023-04-13T12:40:16.343Z,5.40
2023-04-13T12:42:48.076Z,5.70
2023-04-13T12:45:16.062Z,5.40
2023-04-13T12:47:43.100Z,5.60
2023-04-13T12:50:11.028Z,5.80
2023-04-13T12:52:41.804Z,5.60
2023-04-13T12:55:09.361Z,5.40
2023-04-13T12:57:41.202Z,5.60
2023-04-13T13:00:10.625Z,5.90
2023-04-13T13:02:39.385Z,5.60
2023-04-13T13:05:08.713Z,5.80
2023-04-13T13:07:35.578Z,6.00
2023-04-13T13:10:25.880Z,5.30
2023-04-13T13:12:59.997Z,5.30
2023-04-13T13:15:27.134Z,6.00
2023-04-13T13:17:54.979Z,6.30
2023-04-13T13:20:21.977Z,5.80
2023-04-13T13:22:49.058Z,6.50
2023-04-13T13:25:16.527Z,5.80
2023-04-13T13:30:13.893Z,5.70
2023-04-13T13:32:42.732Z,5.30
2023-04-13T13:35:10.218Z,5.00
2023-04-13T13:37:39.174Z,5.70
2023-04-13T13:40:12.351Z,5.60
2023-04-13T13:42:50.178Z,5.50
2023-04-13T13:45:17.938Z,5.60
2023-04-13T13:47:49.557Z,5.90
2023-04-13T13:50:16.651Z,5.80
2023-04-13T13:53:01.690Z,5.70
2023-04-13T13:55:31.755Z,5.60
2023-04-13T13:57:59.559Z,5.40
2023-04-13T14:00:26.453Z,5.50
2023-04-13T14:02:53.744Z,5.50
2023-04-13T14:05:21.636Z,5.90
2023-04-13T14:07:49.252Z,6.70
2023-04-13T14:10:16.846Z,6.50
2023-04-13T14:12:47.405Z,6.50
2023-04-13T14:15:21.200Z,6.80
2023-04-13T14:17:55.827Z,6.60
2023-04-13T14:20:34.224Z,7.50
2023-04-13T14:23:01.162Z,6.80
2023-04-13T14:25:28.749Z,6.60
2023-04-13T14:27:56.514Z,6.60
2023-04-13T14:30:24.966Z,6.00
2023-04-13T14:32:54.204Z,6.60
2023-04-13T14:35:21.678Z,6.40
2023-04-13T14:37:48.785Z,6.10
2023-04-13T14:40:21.241Z,6.80
2023-04-13T14:42:53.276Z,6.20
2023-04-13T14:45:20.480Z,6.80
2023-04-13T14:47:47.549Z,6.90
2023-04-13T14:50:15.644Z,7.90
2023-04-13T14:52:44.310Z,5.90
2023-04-13T14:55:12.681Z,5.90
2023-04-13T14:57:41.026Z,5.60
2023-04-13T15:00:22.047Z,20.50
2023-04-13T15:03:10.653Z,6.30
2023-04-13T15:05:39.590Z,6.00
2023-04-13T15:08:07.655Z,5.60
2023-04-13T15:10:34.847Z,5.80
2023-04-13T15:15:36.160Z,5.50
2023-04-13T15:18:03.734Z,5.40
2023-04-13T15:20:34.948Z,6.50
2023-04-13T15:23:02.881Z,6.20
2023-04-13T15:25:30.356Z,6.70
2023-04-13T15:27:58.675Z,7.70
2023-04-13T15:30:28.009Z,7.00
2023-04-13T15:32:57.873Z,5.60
2023-04-13T15:35:27.006Z,6.90
2023-04-13T15:37:54.564Z,7.30
2023-04-13T15:40:24.456Z,7.80
2023-04-13T15:42:51.517Z,7.30
2023-04-13T15:45:20.254Z,8.10
2023-04-13T15:47:47.282Z,8.20
2023-04-13T15:50:14.740Z,8.40
2023-04-13T15:52:41.912Z,7.80
2023-04-13T15:55:09.430Z,9.60
2023-04-13T15:57:36.576Z,8.70
2023-04-13T16:00:06.652Z,8.40
2023-04-13T16:02:35.111Z,7.30
2023-04-13T16:05:03.244Z,7.40
2023-04-13T16:07:30.445Z,7.40
2023-04-13T16:09:57.841Z,7.90
2023-04-13T16:12:31.273Z,7.60
2023-04-13T16:14:58.979Z,7.90
2023-04-13T16:17:31.568Z,8.00
2023-04-13T16:20:12.770Z,7.40
2023-04-13T16:22:41.509Z,7.20
2023-04-13T16:25:15.003Z,7.80
2023-04-13T16:27:42.880Z,9.20
2023-04-13T16:30:12.344Z,10.10
2023-04-13T16:32:45.848Z,11.80
2023-04-13T16:35:12.873Z,9.40
2023-04-13T16:37:41.775Z,7.20
2023-04-13T16:40:12.728Z,6.50
2023-04-13T16:42:41.123Z,6.60
2023-04-13T16:45:10.287Z,5.90
2023-04-13T16:50:10.234Z,6.20
2023-04-13T16:52:38.329Z,6.10
2023-04-13T16:55:06.014Z,6.60
2023-04-13T16:57:33.207Z,6.50
2023-04-13T17:00:10.228Z,7.50
2023-04-13T17:02:39.932Z,6.70
2023-04-13T17:05:08.394Z,7.10
2023-04-13T17:07:38.021Z,6.70
2023-04-13T17:10:20.935Z,6.80
2023-04-13T17:12:49.647Z,7.30
2023-04-13T17:15:18.421Z,7.60
2023-04-13T17:17:45.900Z,7.30
2023-04-13T17:20:16.925Z,7.20
2023-04-13T17:22:44.670Z,6.50
2023-04-13T17:25:18.830Z,7.00
2023-04-13T17:27:46.872Z,6.70
2023-04-13T17:30:14.099Z,6.20
2023-04-13T17:32:57.107Z,8.20
2023-04-13T17:35:23.980Z,8.00
2023-04-13T17:37:51.006Z,9.10
2023-04-13T17:40:19.922Z,9.70
2023-04-13T17:42:47.430Z,9.30
2023-04-13T17:45:17.881Z,8.20
2023-04-13T17:47:48.849Z,7.50
2023-04-13T17:50:17.831Z,7.50
2023-04-13T17:52:44.681Z,6.40
2023-04-13T17:55:15.537Z,5.80
2023-04-13T17:57:43.158Z,6.10
2023-04-13T18:00:11.471Z,6.70
2023-04-13T18:02:58.426Z,8.40
2023-04-13T18:05:27.292Z,7.80
2023-04-13T18:07:54.167Z,7.20
2023-04-13T18:10:21.070Z,7.20
2023-04-13T18:12:53.113Z,9.80
2023-04-13T18:15:21.298Z,9.00
2023-04-13T18:17:48.166Z,9.10
2023-04-13T18:20:15.184Z,8.80
2023-04-13T18:22:42.743Z,10.20
2023-04-13T18:25:09.895Z,9.10
2023-04-13T18:27:36.881Z,8.40
2023-04-13T18:30:08.319Z,7.70
2023-04-13T18:32:36.903Z,6.40
2023-04-13T18:35:04.197Z,6.30
2023-04-13T18:37:31.540Z,5.80
2023-04-13T18:39:58.695Z,6.40
2023-04-13T18:42:25.755Z,6.60
2023-04-13T18:44:56.316Z,8.70
2023-04-13T18:47:25.133Z,10.80
2023-04-13T18:49:51.944Z,10.90
2023-04-13T18:52:19.077Z,9.60
2023-04-13T18:54:48.109Z,8.40
2023-04-13T18:57:15.006Z,7.20
2023-04-13T18:59:44.614Z,8.00
2023-04-13T19:02:41.758Z,8.40
2023-04-13T19:05:11.582Z,7.30
2023-04-13T19:07:56.721Z,7.60
2023-04-13T19:10:24.717Z,8.20
2023-04-13T19:12:52.264Z,7.70
2023-04-13T19:15:24.576Z,6.90
2023-04-13T19:17:52.906Z,6.70
2023-04-13T19:20:21.518Z,6.30
2023-04-13T19:22:48.558Z,6.80
2023-04-13T19:25:17.585Z,6.80
2023-04-13T19:27:47.112Z,6.90
2023-04-13T19:30:15.350Z,7.30
2023-04-13T19:32:44.540Z,6.30
2023-04-13T19:35:12.115Z,6.60
2023-04-13T19:37:39.097Z,6.10
2023-04-13T19:40:12.551Z,6.30
2023-04-13T19:42:42.182Z,5.40
2023-04-13T19:45:09.172Z,5.80
2023-04-13T19:47:39.072Z,5.80
2023-04-13T19:50:09.317Z,5.30
2023-04-13T19:52:36.615Z,6.60
2023-04-13T19:55:03.642Z,5.20
2023-04-13T19:57:31.232Z,6.50
2023-04-13T19:59:57.994Z,5.90
2023-04-13T20:02:25.070Z,5.90
2023-04-13T20:04:53.337Z,6.10
2023-04-13T20:07:20.171Z,5.70
2023-04-13T20:09:46.967Z,5.40
2023-04-13T20:12:21.221Z,5.70
2023-04-13T20:14:48.817Z,5.60
2023-04-13T20:17:15.816Z,5.50
2023-04-13T20:19:44.399Z,5.70
2023-04-13T20:22:13.018Z,6.70
2023-04-13T20:24:39.888Z,6.70
2023-04-13T20:27:09.417Z,6.10
2023-04-13T20:29:36.908Z,5.50
2023-04-13T20:32:07.941Z,5.90
2023-04-13T20:34:37.198Z,6.00
2023-04-13T20:37:09.121Z,5.90
2023-04-13T20:39:49.473Z,6.20
2023-04-13T20:42:20.598Z,5.90
2023-04-13T20:44:56.700Z,6.20
2023-04-13T20:47:27.876Z,6.00
2023-04-13T20:49:56.823Z,5.30
2023-04-13T20:52:23.851Z,5.20
2023-04-13T20:54:50.881Z,6.10
2023-04-13T20:57:19.297Z,5.40
2023-04-13T20:59:47.449Z,5.80
2023-04-13T21:02:15.146Z,5.20
2023-04-13T21:04:43.245Z,5.40
2023-04-13T21:07:10.968Z,6.80
2023-04-13T21:09:38.891Z,6.70
2023-04-13T21:12:06.681Z,5.80
2023-04-13T21:14:33.524Z,6.00
2023-04-13T21:17:00.716Z,6.20
2023-04-13T21:19:27.659Z,6.40
2023-04-13T21:21:56.833Z,5.50
2023-04-13T21:24:24.791Z,5.00
2023-04-13T21:26:52.351Z,5.80
2023-04-13T21:29:19.652Z,4.60
2023-04-13T21:31:47.227Z,5.50
2023-04-13T21:34:15.463Z,5.90
2023-04-13T21:41:42.227Z,5.50
2023-04-13T21:44:19.128Z,5.50
2023-04-13T21:46:56.083Z,5.20
2023-04-13T21:49:22.986Z,5.80
2023-04-13T21:51:50.114Z,6.00
2023-04-13T21:54:17.064Z,5.90
2023-04-13T21:56:43.809Z,5.80
2023-04-13T21:59:10.849Z,6.30
2023-04-13T22:01:38.111Z,5.90
2023-04-13T22:04:05.834Z,5.50
2023-04-13T22:06:32.894Z,5.50
2023-04-13T22:09:01.495Z,6.40
2023-04-13T22:11:28.939Z,6.10
2023-04-13T22:13:55.791Z,5.20
2023-04-13T22:16:22.881Z,6.40
2023-04-13T22:18:51.532Z,6.50
2023-04-13T22:21:18.373Z,5.70
2023-04-13T22:23:47.652Z,7.20
2023-04-13T22:26:14.505Z,6.80
2023-04-13T22:28:41.272Z,6.00
2023-04-13T22:31:11.638Z,6.00
2023-04-13T22:33:39.921Z,5.40
2023-04-13T22:36:16.017Z,5.00
2023-04-13T22:38:47.356Z,5.00
2023-04-13T22:41:15.128Z,4.60
2023-04-13T22:43:42.434Z,4.60
2023-04-13T22:46:10.206Z,5.00
2023-04-13T22:48:37.704Z,3.90
2023-04-13T22:51:04.712Z,4.40
2023-04-13T22:53:31.775Z,4.60
2023-04-13T22:56:00.036Z,4.90
2023-04-13T22:58:27.561Z,4.80
2023-04-13T23:00:55.140Z,5.50
2023-04-13T23:03:23.919Z,4.30
2023-04-13T23:05:52.281Z,4.20
2023-04-13T23:08:19.089Z,3.90
2023-04-13T23:10:46.059Z,4.20
2023-04-13T23:13:13.041Z,4.00
2023-04-13T23:15:40.473Z,4.10
2023-04-13T23:18:08.044Z,4.00
2023-04-13T23:20:35.369Z,4.10
2023-04-13T23:23:02.325Z,3.90
2023-04-13T23:25:29.725Z,3.90
2023-04-13T23:27:56.657Z,4.00
2023-04-13T23:30:23.497Z,4.20
2023-04-13T23:32:51.016Z,4.70
2023-04-13T23:35:18.162Z,4.50
2023-04-13T23:37:45.589Z,4.70
2023-04-13T23:40:13.277Z,4.20
2023-04-13T23:42:40.601Z,4.50
2023-04-13T23:45:11.829Z,4.60
2023-04-13T23:47:39.335Z,4.80
2023-04-13T23:50:07.006Z,5.30
2023-04-13T23:52:33.937Z,4.40
2023-04-13T23:55:01.015Z,4.60
2023-04-13T23:57:33.063Z,4.50
